• Join FlightAware (Why Join?)
  • Login
  • US Flag 
10:31AM EDT


 

Airport Tracker/Info


-or-


 

Live Flight TrackerFlight Track Log ✈ N612FT ✈ 04-May-2012 ✈ KTPA - KMLB

Flight Track Log - Related Links

Times and Time Zones

All times are in EDT time to prevent confusion due to time zone crossing. See the N612FT flight status page for this flight to view local times or setup timezone preferences in your user account.

Time Position Orientation Groundspeed Altitude Reporting Facility
EDT Latitude Longitude Course Direction KTS MPH feet Rate Location/Type
10:40PM 27.5753 -80.5350 322° Northwest 103 119 3,000  Level Miami Center
10:45PM 27.6997 -80.6444 324° Northwest 107 123 3,100  Climbing Miami Center
10:46PM 27.7242 -80.6642 334° Northwest 107 123 3,000 -60 Descending Miami Center
10:47PM 27.7511 -80.6792 330° Northwest 107 123 3,000  Level Miami Center
10:48PM 27.7736 -80.6939 340° North 107 123 3,000  Level Miami Center
10:49PM 27.8044 -80.7067 350° North 107 123 3,100  Climbing Miami Center
10:50PM 27.8336 -80.7125 351° North 102 117 3,000  Descending Miami Center
10:51PM 27.8647 -80.7181 North 102 117 3,100  Climbing Miami Center
10:52PM 27.9167 -80.7167 336° Northwest 115 132 3,000 -60 Descending Orlando TRACON
10:53PM 27.9500 -80.7333 319° Northwest 115 132 3,000  Level Orlando TRACON
10:54PM 27.9667 -80.7500 300° West 121 139 3,000  Level Orlando TRACON
10:55PM 27.9833 -80.7833 300° West 116 133 3,000 -60 Level Orlando TRACON
10:56PM 28.0000 -80.8167 270° West 120 138 2,900  Descending Orlando TRACON
10:57PM 28.0000 -80.8500 336° Northwest 117 135 3,000  Climbing Orlando TRACON
10:58PM 28.0333 -80.8667 360° North 115 132 3,000  Level Orlando TRACON
10:59PM 28.0667 -80.8667 360° North 117 135 3,000 -480 Level Orlando TRACON
11:00PM 28.1000 -80.8667 90° East 119 137 2,100 -600 Descending Orlando TRACON
11:01PM 28.1000 -80.8333 90° East 93 107 1,800 -300 Descending Orlando TRACON
11:02PM 28.1000 -80.8000 90° East 90 104 1,600 -60 Descending Orlando TRACON
11:03PM 28.1000 -80.7833 90° East 88 101 1,700 -120 Climbing Orlando TRACON
11:04PM 28.1000 -80.7500 90° East 89 102 1,400 -420 Descending Orlando TRACON
11:05PM 28.1000 -80.7167 90° East 83 96 900 -300 Descending Orlando TRACON
11:06PM 28.1000 -80.7000 120° Southeast 95 109 800 -120 Descending Orlando TRACON
11:07PM 28.0833 -80.6667 120° Southeast 100 115 700 -120 Descending Orlando TRACON